sensor_id;sensor_type;location;lat;lon;timestamp;P1;durP1;ratioP1;P2;durP2;ratioP2
30147;SDS011;16960;49.404;8.248;2023-04-15T00:01:44;2.30;;;1.70;;
30147;SDS011;16960;49.404;8.248;2023-04-15T00:04:11;2.60;;;1.60;;
30147;SDS011;16960;49.404;8.248;2023-04-15T00:06:38;1.30;;;1.20;;
30147;SDS011;16960;49.404;8.248;2023-04-15T00:09:05;1.63;;;1.40;;
30147;SDS011;16960;49.404;8.248;2023-04-15T00:11:34;1.97;;;1.47;;
30147;SDS011;16960;49.404;8.248;2023-04-15T00:14:01;1.97;;;1.63;;
30147;SDS011;16960;49.404;8.248;2023-04-15T00:16:28;1.53;;;1.43;;
30147;SDS011;16960;49.404;8.248;2023-04-15T00:18:55;1.33;;;1.10;;
30147;SDS011;16960;49.404;8.248;2023-04-15T00:21:22;1.30;;;1.20;;
30147;SDS011;16960;49.404;8.248;2023-04-15T00:23:49;1.87;;;1.43;;
30147;SDS011;16960;49.404;8.248;2023-04-15T00:26:17;2.83;;;1.87;;
30147;SDS011;16960;49.404;8.248;2023-04-15T00:28:46;1.60;;;1.50;;
30147;SDS011;16960;49.404;8.248;2023-04-15T00:31:13;2.30;;;1.90;;
30147;SDS011;16960;49.404;8.248;2023-04-15T00:33:40;3.63;;;1.33;;
30147;SDS011;16960;49.404;8.248;2023-04-15T00:36:07;1.43;;;1.30;;
30147;SDS011;16960;49.404;8.248;2023-04-15T00:38:35;1.50;;;1.40;;
30147;SDS011;16960;49.404;8.248;2023-04-15T00:41:03;1.67;;;1.57;;
30147;SDS011;16960;49.404;8.248;2023-04-15T00:43:30;1.57;;;1.47;;
30147;SDS011;16960;49.404;8.248;2023-04-15T00:45:59;1.40;;;1.27;;
30147;SDS011;16960;49.404;8.248;2023-04-15T00:48:27;1.70;;;1.60;;
30147;SDS011;16960;49.404;8.248;2023-04-15T00:50:55;2.27;;;1.50;;
30147;SDS011;16960;49.404;8.248;2023-04-15T00:53:22;1.50;;;1.23;;
30147;SDS011;16960;49.404;8.248;2023-04-15T00:55:49;1.70;;;1.50;;
30147;SDS011;16960;49.404;8.248;2023-04-15T00:58:16;1.73;;;1.33;;
30147;SDS011;16960;49.404;8.248;2023-04-15T01:00:43;1.60;;;1.30;;
30147;SDS011;16960;49.404;8.248;2023-04-15T01:03:13;1.77;;;1.37;;
30147;SDS011;16960;49.404;8.248;2023-04-15T01:05:40;1.97;;;1.47;;
30147;SDS011;16960;49.404;8.248;2023-04-15T01:08:07;1.57;;;1.37;;
30147;SDS011;16960;49.404;8.248;2023-04-15T01:10:34;2.17;;;1.60;;
30147;SDS011;16960;49.404;8.248;2023-04-15T01:13:02;1.77;;;1.43;;
30147;SDS011;16960;49.404;8.248;2023-04-15T01:15:29;1.50;;;1.10;;
30147;SDS011;16960;49.404;8.248;2023-04-15T01:17:56;1.40;;;1.20;;
30147;SDS011;16960;49.404;8.248;2023-04-15T01:20:25;2.63;;;1.47;;
30147;SDS011;16960;49.404;8.248;2023-04-15T01:22:52;1.43;;;1.10;;
30147;SDS011;16960;49.404;8.248;2023-04-15T01:25:27;1.20;;;1.10;;
30147;SDS011;16960;49.404;8.248;2023-04-15T01:27:57;1.57;;;1.30;;
30147;SDS011;16960;49.404;8.248;2023-04-15T01:30:24;2.47;;;1.20;;
30147;SDS011;16960;49.404;8.248;2023-04-15T01:32:52;1.30;;;1.20;;
30147;SDS011;16960;49.404;8.248;2023-04-15T01:35:19;5.30;;;1.50;;
30147;SDS011;16960;49.404;8.248;2023-04-15T01:37:46;1.50;;;1.40;;
30147;SDS011;16960;49.404;8.248;2023-04-15T01:40:14;3.03;;;1.70;;
30147;SDS011;16960;49.404;8.248;2023-04-15T01:42:42;1.67;;;1.20;;
30147;SDS011;16960;49.404;8.248;2023-04-15T01:45:10;2.90;;;1.43;;
30147;SDS011;16960;49.404;8.248;2023-04-15T01:47:37;1.40;;;1.30;;
30147;SDS011;16960;49.404;8.248;2023-04-15T01:50:04;2.27;;;1.53;;
30147;SDS011;16960;49.404;8.248;2023-04-15T01:52:32;1.30;;;1.20;;
30147;SDS011;16960;49.404;8.248;2023-04-15T01:54:59;2.33;;;1.67;;
30147;SDS011;16960;49.404;8.248;2023-04-15T01:57:27;2.33;;;1.40;;
30147;SDS011;16960;49.404;8.248;2023-04-15T01:59:55;1.30;;;1.10;;
30147;SDS011;16960;49.404;8.248;2023-04-15T02:02:22;1.57;;;1.40;;
30147;SDS011;16960;49.404;8.248;2023-04-15T02:04:49;1.50;;;1.40;;
30147;SDS011;16960;49.404;8.248;2023-04-15T02:07:16;1.37;;;1.27;;
30147;SDS011;16960;49.404;8.248;2023-04-15T02:09:42;1.40;;;1.20;;
30147;SDS011;16960;49.404;8.248;2023-04-15T02:12:10;1.27;;;1.17;;
30147;SDS011;16960;49.404;8.248;2023-04-15T02:14:37;1.60;;;1.30;;
30147;SDS011;16960;49.404;8.248;2023-04-15T02:17:06;2.00;;;1.40;;
30147;SDS011;16960;49.404;8.248;2023-04-15T02:19:33;1.50;;;1.30;;
30147;SDS011;16960;49.404;8.248;2023-04-15T02:22:00;2.40;;;1.20;;
30147;SDS011;16960;49.404;8.248;2023-04-15T02:24:29;2.20;;;1.43;;
30147;SDS011;16960;49.404;8.248;2023-04-15T02:26:56;1.60;;;1.40;;
30147;SDS011;16960;49.404;8.248;2023-04-15T02:29:23;1.33;;;1.20;;
30147;SDS011;16960;49.404;8.248;2023-04-15T02:31:50;1.63;;;1.10;;
30147;SDS011;16960;49.404;8.248;2023-04-15T02:34:18;2.70;;;1.30;;
30147;SDS011;16960;49.404;8.248;2023-04-15T02:36:45;1.60;;;1.43;;
30147;SDS011;16960;49.404;8.248;2023-04-15T02:39:13;1.07;;;0.97;;
30147;SDS011;16960;49.404;8.248;2023-04-15T02:41:42;1.60;;;1.20;;
30147;SDS011;16960;49.404;8.248;2023-04-15T02:44:11;1.70;;;1.23;;
30147;SDS011;16960;49.404;8.248;2023-04-15T02:46:38;1.77;;;1.37;;
30147;SDS011;16960;49.404;8.248;2023-04-15T02:49:06;1.40;;;1.10;;
30147;SDS011;16960;49.404;8.248;2023-04-15T02:51:36;1.33;;;1.23;;
30147;SDS011;16960;49.404;8.248;2023-04-15T02:54:03;1.23;;;1.13;;
30147;SDS011;16960;49.404;8.248;2023-04-15T02:56:30;1.70;;;1.40;;
30147;SDS011;16960;49.404;8.248;2023-04-15T02:58:57;1.60;;;1.33;;
30147;SDS011;16960;49.404;8.248;2023-04-15T03:01:24;1.30;;;1.10;;
30147;SDS011;16960;49.404;8.248;2023-04-15T03:03:51;1.20;;;1.07;;
30147;SDS011;16960;49.404;8.248;2023-04-15T03:06:18;1.50;;;1.40;;
30147;SDS011;16960;49.404;8.248;2023-04-15T03:08:46;1.57;;;1.10;;
30147;SDS011;16960;49.404;8.248;2023-04-15T03:11:13;1.00;;;0.87;;
30147;SDS011;16960;49.404;8.248;2023-04-15T03:13:41;1.67;;;1.43;;
30147;SDS011;16960;49.404;8.248;2023-04-15T03:16:08;1.63;;;1.23;;
30147;SDS011;16960;49.404;8.248;2023-04-15T03:18:35;1.10;;;1.00;;
30147;SDS011;16960;49.404;8.248;2023-04-15T03:21:02;1.53;;;1.27;;
30147;SDS011;16960;49.404;8.248;2023-04-15T03:23:29;1.40;;;1.23;;
30147;SDS011;16960;49.404;8.248;2023-04-15T03:26:00;4.00;;;1.57;;
30147;SDS011;16960;49.404;8.248;2023-04-15T03:28:27;2.23;;;1.27;;
30147;SDS011;16960;49.404;8.248;2023-04-15T03:30:54;1.50;;;1.30;;
30147;SDS011;16960;49.404;8.248;2023-04-15T03:33:21;1.43;;;1.17;;
30147;SDS011;16960;49.404;8.248;2023-04-15T03:35:49;1.80;;;1.30;;
30147;SDS011;16960;49.404;8.248;2023-04-15T03:38:16;1.70;;;1.30;;
30147;SDS011;16960;49.404;8.248;2023-04-15T03:40:44;1.50;;;1.17;;
30147;SDS011;16960;49.404;8.248;2023-04-15T03:43:13;1.20;;;1.10;;
30147;SDS011;16960;49.404;8.248;2023-04-15T03:45:40;1.33;;;1.10;;
30147;SDS011;16960;49.404;8.248;2023-04-15T03:48:07;1.80;;;1.30;;
30147;SDS011;16960;49.404;8.248;2023-04-15T03:50:34;1.43;;;1.20;;
30147;SDS011;16960;49.404;8.248;2023-04-15T03:53:01;1.30;;;1.20;;
30147;SDS011;16960;49.404;8.248;2023-04-15T03:55:28;1.30;;;1.07;;
30147;SDS011;16960;49.404;8.248;2023-04-15T03:57:55;2.00;;;1.20;;
30147;SDS011;16960;49.404;8.248;2023-04-15T04:00:23;1.20;;;1.03;;
30147;SDS011;16960;49.404;8.248;2023-04-15T04:02:50;1.23;;;0.83;;
30147;SDS011;16960;49.404;8.248;2023-04-15T04:05:17;1.63;;;1.27;;
30147;SDS011;16960;49.404;8.248;2023-04-15T04:07:44;1.33;;;1.20;;
30147;SDS011;16960;49.404;8.248;2023-04-15T04:10:11;1.10;;;1.00;;
30147;SDS011;16960;49.404;8.248;2023-04-15T04:12:38;1.27;;;0.90;;
30147;SDS011;16960;49.404;8.248;2023-04-15T04:15:05;1.30;;;1.20;;
30147;SDS011;16960;49.404;8.248;2023-04-15T04:17:34;1.23;;;1.13;;
30147;SDS011;16960;49.404;8.248;2023-04-15T04:20:01;4.20;;;1.30;;
30147;SDS011;16960;49.404;8.248;2023-04-15T04:22:29;1.20;;;1.10;;
30147;SDS011;16960;49.404;8.248;2023-04-15T04:24:56;2.10;;;1.33;;
30147;SDS011;16960;49.404;8.248;2023-04-15T04:27:24;1.40;;;1.20;;
30147;SDS011;16960;49.404;8.248;2023-04-15T04:29:51;1.30;;;1.20;;
30147;SDS011;16960;49.404;8.248;2023-04-15T04:32:18;1.20;;;1.10;;
30147;SDS011;16960;49.404;8.248;2023-04-15T04:34:46;1.27;;;1.17;;
30147;SDS011;16960;49.404;8.248;2023-04-15T04:37:13;1.67;;;1.30;;
30147;SDS011;16960;49.404;8.248;2023-04-15T04:39:40;1.00;;;0.90;;
30147;SDS011;16960;49.404;8.248;2023-04-15T04:42:07;1.30;;;1.20;;
30147;SDS011;16960;49.404;8.248;2023-04-15T04:44:34;2.10;;;1.43;;
30147;SDS011;16960;49.404;8.248;2023-04-15T04:47:01;1.40;;;1.30;;
30147;SDS011;16960;49.404;8.248;2023-04-15T04:49:28;1.30;;;1.20;;
30147;SDS011;16960;49.404;8.248;2023-04-15T04:51:56;1.27;;;0.97;;
30147;SDS011;16960;49.404;8.248;2023-04-15T04:54:24;1.63;;;1.53;;
30147;SDS011;16960;49.404;8.248;2023-04-15T04:56:51;1.40;;;1.10;;
30147;SDS011;16960;49.404;8.248;2023-04-15T04:59:18;1.30;;;1.10;;
30147;SDS011;16960;49.404;8.248;2023-04-15T05:01:45;1.37;;;1.27;;
30147;SDS011;16960;49.404;8.248;2023-04-15T05:04:12;1.27;;;1.17;;
30147;SDS011;16960;49.404;8.248;2023-04-15T05:06:39;1.50;;;1.37;;
30147;SDS011;16960;49.404;8.248;2023-04-15T05:09:07;1.23;;;1.10;;
30147;SDS011;16960;49.404;8.248;2023-04-15T05:11:34;1.67;;;1.10;;
30147;SDS011;16960;49.404;8.248;2023-04-15T05:14:01;1.33;;;1.23;;
30147;SDS011;16960;49.404;8.248;2023-04-15T05:16:28;1.23;;;0.93;;
30147;SDS011;16960;49.404;8.248;2023-04-15T05:18:55;1.33;;;1.23;;
30147;SDS011;16960;49.404;8.248;2023-04-15T05:21:22;1.57;;;1.33;;
30147;SDS011;16960;49.404;8.248;2023-04-15T05:23:50;1.50;;;1.20;;
30147;SDS011;16960;49.404;8.248;2023-04-15T05:26:18;1.60;;;1.30;;
30147;SDS011;16960;49.404;8.248;2023-04-15T05:28:45;2.00;;;1.30;;
30147;SDS011;16960;49.404;8.248;2023-04-15T05:31:13;1.30;;;1.20;;
30147;SDS011;16960;49.404;8.248;2023-04-15T05:33:40;1.43;;;1.33;;
30147;SDS011;16960;49.404;8.248;2023-04-15T05:36:08;0.97;;;0.83;;
30147;SDS011;16960;49.404;8.248;2023-04-15T05:38:36;1.83;;;1.20;;
30147;SDS011;16960;49.404;8.248;2023-04-15T05:41:03;2.20;;;1.13;;
30147;SDS011;16960;49.404;8.248;2023-04-15T05:43:31;2.97;;;1.10;;
30147;SDS011;16960;49.404;8.248;2023-04-15T05:45:58;1.20;;;1.10;;
30147;SDS011;16960;49.404;8.248;2023-04-15T05:48:25;2.30;;;1.57;;
30147;SDS011;16960;49.404;8.248;2023-04-15T05:50:52;1.10;;;1.00;;
30147;SDS011;16960;49.404;8.248;2023-04-15T05:53:19;1.30;;;1.10;;
30147;SDS011;16960;49.404;8.248;2023-04-15T05:55:46;1.27;;;0.97;;
30147;SDS011;16960;49.404;8.248;2023-04-15T05:58:13;1.43;;;1.03;;
30147;SDS011;16960;49.404;8.248;2023-04-15T06:00:41;1.00;;;0.90;;
30147;SDS011;16960;49.404;8.248;2023-04-15T06:03:10;1.40;;;1.07;;
30147;SDS011;16960;49.404;8.248;2023-04-15T06:05:37;1.33;;;1.23;;
30147;SDS011;16960;49.404;8.248;2023-04-15T06:08:05;1.13;;;1.03;;
30147;SDS011;16960;49.404;8.248;2023-04-15T06:10:33;1.00;;;0.90;;
30147;SDS011;16960;49.404;8.248;2023-04-15T06:13:00;1.40;;;1.20;;
30147;SDS011;16960;49.404;8.248;2023-04-15T06:15:28;1.47;;;1.13;;
30147;SDS011;16960;49.404;8.248;2023-04-15T06:17:56;1.47;;;1.37;;
30147;SDS011;16960;49.404;8.248;2023-04-15T06:20:23;1.17;;;0.90;;
30147;SDS011;16960;49.404;8.248;2023-04-15T06:22:50;1.30;;;1.20;;
30147;SDS011;16960;49.404;8.248;2023-04-15T06:25:17;1.30;;;1.10;;
30147;SDS011;16960;49.404;8.248;2023-04-15T06:27:44;1.10;;;0.83;;
30147;SDS011;16960;49.404;8.248;2023-04-15T06:30:13;2.70;;;1.43;;
30147;SDS011;16960;49.404;8.248;2023-04-15T06:32:40;1.20;;;1.10;;
30147;SDS011;16960;49.404;8.248;2023-04-15T06:35:09;1.53;;;1.00;;
30147;SDS011;16960;49.404;8.248;2023-04-15T06:37:36;1.10;;;0.90;;
30147;SDS011;16960;49.404;8.248;2023-04-15T06:40:03;1.53;;;0.93;;
30147;SDS011;16960;49.404;8.248;2023-04-15T06:42:30;1.07;;;0.93;;
30147;SDS011;16960;49.404;8.248;2023-04-15T06:44:58;1.50;;;1.27;;
30147;SDS011;16960;49.404;8.248;2023-04-15T06:47:25;1.60;;;1.00;;
30147;SDS011;16960;49.404;8.248;2023-04-15T06:49:52;1.20;;;1.00;;
30147;SDS011;16960;49.404;8.248;2023-04-15T06:52:20;2.30;;;1.17;;
30147;SDS011;16960;49.404;8.248;2023-04-15T06:54:47;1.30;;;1.20;;
30147;SDS011;16960;49.404;8.248;2023-04-15T06:57:14;1.40;;;1.10;;
30147;SDS011;16960;49.404;8.248;2023-04-15T06:59:40;1.87;;;0.90;;
30147;SDS011;16960;49.404;8.248;2023-04-15T07:02:08;2.20;;;1.30;;
30147;SDS011;16960;49.404;8.248;2023-04-15T07:04:38;1.53;;;0.87;;
30147;SDS011;16960;49.404;8.248;2023-04-15T07:07:05;1.10;;;1.00;;
30147;SDS011;16960;49.404;8.248;2023-04-15T07:09:33;1.37;;;1.00;;
30147;SDS011;16960;49.404;8.248;2023-04-15T07:12:00;2.03;;;1.33;;
30147;SDS011;16960;49.404;8.248;2023-04-15T07:14:27;2.00;;;1.20;;
30147;SDS011;16960;49.404;8.248;2023-04-15T07:16:54;2.57;;;1.30;;
30147;SDS011;16960;49.404;8.248;2023-04-15T07:19:21;1.53;;;1.00;;
30147;SDS011;16960;49.404;8.248;2023-04-15T07:21:48;3.33;;;1.10;;
30147;SDS011;16960;49.404;8.248;2023-04-15T07:24:15;1.30;;;1.20;;
30147;SDS011;16960;49.404;8.248;2023-04-15T07:26:45;2.00;;;1.00;;
30147;SDS011;16960;49.404;8.248;2023-04-15T07:29:12;2.00;;;1.10;;
30147;SDS011;16960;49.404;8.248;2023-04-15T07:31:39;1.13;;;1.03;;
30147;SDS011;16960;49.404;8.248;2023-04-15T07:34:07;1.57;;;1.10;;
30147;SDS011;16960;49.404;8.248;2023-04-15T07:36:34;1.20;;;1.07;;
30147;SDS011;16960;49.404;8.248;2023-04-15T07:39:01;1.77;;;1.30;;
30147;SDS011;16960;49.404;8.248;2023-04-15T07:41:28;1.60;;;1.10;;
30147;SDS011;16960;49.404;8.248;2023-04-15T07:43:57;0.83;;;0.80;;
30147;SDS011;16960;49.404;8.248;2023-04-15T07:46:24;1.80;;;0.90;;
30147;SDS011;16960;49.404;8.248;2023-04-15T07:48:51;1.43;;;1.03;;
30147;SDS011;16960;49.404;8.248;2023-04-15T07:51:18;1.30;;;1.10;;
30147;SDS011;16960;49.404;8.248;2023-04-15T07:53:45;1.40;;;1.13;;
30147;SDS011;16960;49.404;8.248;2023-04-15T07:56:12;2.00;;;0.93;;
30147;SDS011;16960;49.404;8.248;2023-04-15T07:58:39;3.37;;;1.70;;
30147;SDS011;16960;49.404;8.248;2023-04-15T08:01:08;2.60;;;1.20;;
30147;SDS011;16960;49.404;8.248;2023-04-15T08:03:34;1.03;;;0.70;;
30147;SDS011;16960;49.404;8.248;2023-04-15T08:06:02;1.13;;;0.90;;
30147;SDS011;16960;49.404;8.248;2023-04-15T08:08:29;0.80;;;0.80;;
30147;SDS011;16960;49.404;8.248;2023-04-15T08:10:56;2.90;;;1.00;;
30147;SDS011;16960;49.404;8.248;2023-04-15T08:13:24;1.37;;;0.90;;
30147;SDS011;16960;49.404;8.248;2023-04-15T08:15:52;1.30;;;1.07;;
30147;SDS011;16960;49.404;8.248;2023-04-15T08:18:41;0.97;;;0.87;;
30147;SDS011;16960;49.404;8.248;2023-04-15T08:21:08;1.47;;;1.17;;
30147;SDS011;16960;49.404;8.248;2023-04-15T08:23:35;1.93;;;1.80;;
30147;SDS011;16960;49.404;8.248;2023-04-15T08:26:03;1.57;;;1.30;;
30147;SDS011;16960;49.404;8.248;2023-04-15T08:28:30;1.93;;;1.50;;
30147;SDS011;16960;49.404;8.248;2023-04-15T08:30:57;1.47;;;1.20;;
30147;SDS011;16960;49.404;8.248;2023-04-15T08:33:25;1.43;;;1.20;;
30147;SDS011;16960;49.404;8.248;2023-04-15T08:35:53;2.90;;;1.60;;
30147;SDS011;16960;49.404;8.248;2023-04-15T08:38:19;2.40;;;1.57;;
30147;SDS011;16960;49.404;8.248;2023-04-15T08:40:46;2.00;;;1.60;;
30147;SDS011;16960;49.404;8.248;2023-04-15T08:43:17;2.20;;;1.80;;
30147;SDS011;16960;49.404;8.248;2023-04-15T08:45:46;1.50;;;1.40;;
30147;SDS011;16960;49.404;8.248;2023-04-15T08:48:15;1.70;;;1.50;;
30147;SDS011;16960;49.404;8.248;2023-04-15T08:50:44;2.97;;;1.93;;
30147;SDS011;16960;49.404;8.248;2023-04-15T08:53:12;1.67;;;1.57;;
30147;SDS011;16960;49.404;8.248;2023-04-15T08:55:41;2.27;;;1.60;;
30147;SDS011;16960;49.404;8.248;2023-04-15T08:58:10;2.10;;;1.73;;
30147;SDS011;16960;49.404;8.248;2023-04-15T09:00:37;1.73;;;1.50;;
30147;SDS011;16960;49.404;8.248;2023-04-15T09:03:05;2.50;;;1.43;;
30147;SDS011;16960;49.404;8.248;2023-04-15T09:05:33;7.13;;;1.50;;
30147;SDS011;16960;49.404;8.248;2023-04-15T09:08:03;1.80;;;1.67;;
30147;SDS011;16960;49.404;8.248;2023-04-15T09:10:31;2.50;;;1.47;;
30147;SDS011;16960;49.404;8.248;2023-04-15T09:12:59;2.20;;;2.00;;
30147;SDS011;16960;49.404;8.248;2023-04-15T09:15:27;2.87;;;2.10;;
30147;SDS011;16960;49.404;8.248;2023-04-15T09:17:55;2.40;;;2.20;;
30147;SDS011;16960;49.404;8.248;2023-04-15T09:20:22;2.93;;;1.83;;
30147;SDS011;16960;49.404;8.248;2023-04-15T09:22:49;2.93;;;2.00;;
30147;SDS011;16960;49.404;8.248;2023-04-15T09:25:28;5.20;;;2.30;;
30147;SDS011;16960;49.404;8.248;2023-04-15T09:27:55;1.73;;;1.50;;
30147;SDS011;16960;49.404;8.248;2023-04-15T09:30:24;2.97;;;1.73;;
30147;SDS011;16960;49.404;8.248;2023-04-15T09:32:51;2.20;;;2.00;;
30147;SDS011;16960;49.404;8.248;2023-04-15T09:35:19;1.97;;;1.87;;
30147;SDS011;16960;49.404;8.248;2023-04-15T09:37:46;4.17;;;2.00;;
30147;SDS011;16960;49.404;8.248;2023-04-15T09:40:13;2.10;;;1.83;;
30147;SDS011;16960;49.404;8.248;2023-04-15T09:42:57;3.00;;;2.07;;
30147;SDS011;16960;49.404;8.248;2023-04-15T09:45:24;1.80;;;1.70;;
30147;SDS011;16960;49.404;8.248;2023-04-15T09:47:51;2.53;;;1.77;;
30147;SDS011;16960;49.404;8.248;2023-04-15T09:50:18;2.73;;;1.73;;
30147;SDS011;16960;49.404;8.248;2023-04-15T09:52:46;2.73;;;2.03;;
30147;SDS011;16960;49.404;8.248;2023-04-15T09:55:13;2.00;;;1.80;;
30147;SDS011;16960;49.404;8.248;2023-04-15T09:57:41;1.67;;;1.57;;
30147;SDS011;16960;49.404;8.248;2023-04-15T10:00:10;1.63;;;1.53;;
30147;SDS011;16960;49.404;8.248;2023-04-15T10:02:38;1.73;;;1.63;;
30147;SDS011;16960;49.404;8.248;2023-04-15T10:05:07;2.43;;;2.13;;
30147;SDS011;16960;49.404;8.248;2023-04-15T10:07:37;2.30;;;2.10;;
30147;SDS011;16960;49.404;8.248;2023-04-15T10:10:07;2.40;;;2.20;;
30147;SDS011;16960;49.404;8.248;2023-04-15T10:12:34;2.80;;;2.37;;
30147;SDS011;16960;49.404;8.248;2023-04-15T10:15:03;3.53;;;2.13;;
30147;SDS011;16960;49.404;8.248;2023-04-15T10:17:33;2.40;;;2.20;;
30147;SDS011;16960;49.404;8.248;2023-04-15T10:20:02;2.47;;;2.27;;
30147;SDS011;16960;49.404;8.248;2023-04-15T10:22:31;3.30;;;2.17;;
30147;SDS011;16960;49.404;8.248;2023-04-15T10:24:58;2.83;;;1.90;;
30147;SDS011;16960;49.404;8.248;2023-04-15T10:27:26;1.80;;;1.70;;
30147;SDS011;16960;49.404;8.248;2023-04-15T10:29:53;2.80;;;2.50;;
30147;SDS011;16960;49.404;8.248;2023-04-15T10:32:21;2.77;;;2.10;;
30147;SDS011;16960;49.404;8.248;2023-04-15T10:34:51;3.40;;;2.43;;
30147;SDS011;16960;49.404;8.248;2023-04-15T10:37:19;1.80;;;1.70;;
30147;SDS011;16960;49.404;8.248;2023-04-15T10:39:47;2.17;;;1.93;;
30147;SDS011;16960;49.404;8.248;2023-04-15T10:42:15;2.17;;;1.97;;
30147;SDS011;16960;49.404;8.248;2023-04-15T10:44:43;2.07;;;1.60;;
30147;SDS011;16960;49.404;8.248;2023-04-15T10:47:14;1.80;;;1.70;;
30147;SDS011;16960;49.404;8.248;2023-04-15T10:49:47;5.73;;;2.10;;
30147;SDS011;16960;49.404;8.248;2023-04-15T10:52:20;2.03;;;1.87;;
30147;SDS011;16960;49.404;8.248;2023-04-15T10:54:49;2.23;;;2.03;;
30147;SDS011;16960;49.404;8.248;2023-04-15T10:57:16;3.23;;;2.07;;
30147;SDS011;16960;49.404;8.248;2023-04-15T11:02:39;2.40;;;2.20;;
30147;SDS011;16960;49.404;8.248;2023-04-15T11:05:08;2.57;;;1.80;;
30147;SDS011;16960;49.404;8.248;2023-04-15T11:07:38;2.43;;;2.10;;
30147;SDS011;16960;49.404;8.248;2023-04-15T11:13:14;2.83;;;1.77;;
30147;SDS011;16960;49.404;8.248;2023-04-15T11:15:42;4.00;;;2.43;;
30147;SDS011;16960;49.404;8.248;2023-04-15T11:18:11;2.43;;;2.23;;
30147;SDS011;16960;49.404;8.248;2023-04-15T11:20:41;2.10;;;1.80;;
30147;SDS011;16960;49.404;8.248;2023-04-15T11:23:10;1.83;;;1.73;;
30147;SDS011;16960;49.404;8.248;2023-04-15T11:25:37;2.17;;;1.97;;
30147;SDS011;16960;49.404;8.248;2023-04-15T11:28:05;1.77;;;1.60;;
30147;SDS011;16960;49.404;8.248;2023-04-15T11:30:33;1.80;;;1.70;;
30147;SDS011;16960;49.404;8.248;2023-04-15T11:33:02;1.40;;;1.27;;
30147;SDS011;16960;49.404;8.248;2023-04-15T11:35:30;2.00;;;1.70;;
30147;SDS011;16960;49.404;8.248;2023-04-15T11:38:01;3.20;;;1.87;;
30147;SDS011;16960;49.404;8.248;2023-04-15T11:40:30;3.87;;;1.50;;
30147;SDS011;16960;49.404;8.248;2023-04-15T11:43:03;4.80;;;1.77;;
30147;SDS011;16960;49.404;8.248;2023-04-15T11:45:34;4.27;;;1.40;;
30147;SDS011;16960;49.404;8.248;2023-04-15T11:48:05;2.40;;;1.53;;
30147;SDS011;16960;49.404;8.248;2023-04-15T11:50:33;2.30;;;1.73;;
30147;SDS011;16960;49.404;8.248;2023-04-15T11:53:01;1.47;;;1.37;;
30147;SDS011;16960;49.404;8.248;2023-04-15T11:55:30;2.63;;;1.50;;
30147;SDS011;16960;49.404;8.248;2023-04-15T11:58:08;2.13;;;1.77;;
30147;SDS011;16960;49.404;8.248;2023-04-15T12:00:36;2.97;;;1.77;;
30147;SDS011;16960;49.404;8.248;2023-04-15T12:03:11;3.83;;;1.40;;
30147;SDS011;16960;49.404;8.248;2023-04-15T12:08:52;3.93;;;1.60;;
30147;SDS011;16960;49.404;8.248;2023-04-15T12:11:29;3.97;;;1.80;;
30147;SDS011;16960;49.404;8.248;2023-04-15T12:13:58;7.87;;;2.00;;
30147;SDS011;16960;49.404;8.248;2023-04-15T12:16:28;5.40;;;1.90;;
30147;SDS011;16960;49.404;8.248;2023-04-15T12:18:57;1.60;;;1.40;;
30147;SDS011;16960;49.404;8.248;2023-04-15T12:21:26;2.80;;;1.50;;
30147;SDS011;16960;49.404;8.248;2023-04-15T12:23:54;2.23;;;2.00;;
30147;SDS011;16960;49.404;8.248;2023-04-15T12:26:26;1.63;;;1.47;;
30147;SDS011;16960;49.404;8.248;2023-04-15T12:28:58;3.20;;;1.93;;
30147;SDS011;16960;49.404;8.248;2023-04-15T12:31:26;3.30;;;1.67;;
30147;SDS011;16960;49.404;8.248;2023-04-15T12:33:54;2.50;;;1.80;;
30147;SDS011;16960;49.404;8.248;2023-04-15T12:36:21;3.23;;;1.73;;
30147;SDS011;16960;49.404;8.248;2023-04-15T12:38:48;2.17;;;1.67;;
30147;SDS011;16960;49.404;8.248;2023-04-15T12:41:15;2.37;;;1.70;;
30147;SDS011;16960;49.404;8.248;2023-04-15T12:43:43;1.50;;;1.40;;
30147;SDS011;16960;49.404;8.248;2023-04-15T12:46:12;3.60;;;1.40;;
30147;SDS011;16960;49.404;8.248;2023-04-15T12:48:39;2.43;;;1.97;;
30147;SDS011;16960;49.404;8.248;2023-04-15T12:51:06;5.73;;;1.50;;
30147;SDS011;16960;49.404;8.248;2023-04-15T12:53:33;3.97;;;1.73;;
30147;SDS011;16960;49.404;8.248;2023-04-15T12:56:00;1.40;;;1.30;;
30147;SDS011;16960;49.404;8.248;2023-04-15T12:58:27;2.50;;;1.77;;
30147;SDS011;16960;49.404;8.248;2023-04-15T13:00:54;1.80;;;1.53;;
30147;SDS011;16960;49.404;8.248;2023-04-15T13:03:22;1.50;;;1.40;;
30147;SDS011;16960;49.404;8.248;2023-04-15T13:05:49;1.80;;;1.40;;
30147;SDS011;16960;49.404;8.248;2023-04-15T13:08:17;2.90;;;1.33;;
30147;SDS011;16960;49.404;8.248;2023-04-15T13:10:44;2.40;;;1.60;;
30147;SDS011;16960;49.404;8.248;2023-04-15T13:13:11;1.97;;;1.47;;
30147;SDS011;16960;49.404;8.248;2023-04-15T13:15:37;2.47;;;1.70;;
30147;SDS011;16960;49.404;8.248;2023-04-15T13:18:05;2.13;;;1.57;;
30147;SDS011;16960;49.404;8.248;2023-04-15T13:20:33;2.80;;;1.37;;
30147;SDS011;16960;49.404;8.248;2023-04-15T13:23:00;3.00;;;1.53;;
30147;SDS011;16960;49.404;8.248;2023-04-15T13:25:27;3.93;;;1.40;;
30147;SDS011;16960;49.404;8.248;2023-04-15T13:27:54;1.63;;;1.53;;
30147;SDS011;16960;49.404;8.248;2023-04-15T13:30:22;3.37;;;1.30;;
30147;SDS011;16960;49.404;8.248;2023-04-15T13:32:49;3.30;;;1.63;;
30147;SDS011;16960;49.404;8.248;2023-04-15T13:35:18;3.23;;;1.40;;
30147;SDS011;16960;49.404;8.248;2023-04-15T13:37:46;2.20;;;1.67;;
30147;SDS011;16960;49.404;8.248;2023-04-15T13:40:13;1.60;;;1.00;;
30147;SDS011;16960;49.404;8.248;2023-04-15T13:42:40;1.53;;;1.43;;
30147;SDS011;16960;49.404;8.248;2023-04-15T13:45:08;1.23;;;1.13;;
30147;SDS011;16960;49.404;8.248;2023-04-15T13:47:35;2.60;;;2.27;;
30147;SDS011;16960;49.404;8.248;2023-04-15T13:50:02;2.20;;;1.20;;
30147;SDS011;16960;49.404;8.248;2023-04-15T13:52:29;3.57;;;1.83;;
30147;SDS011;16960;49.404;8.248;2023-04-15T13:54:57;2.63;;;1.70;;
30147;SDS011;16960;49.404;8.248;2023-04-15T13:57:24;1.77;;;1.30;;
30147;SDS011;16960;49.404;8.248;2023-04-15T13:59:51;3.33;;;1.17;;
30147;SDS011;16960;49.404;8.248;2023-04-15T14:02:19;4.30;;;1.07;;
30147;SDS011;16960;49.404;8.248;2023-04-15T14:04:47;5.33;;;1.47;;
30147;SDS011;16960;49.404;8.248;2023-04-15T14:07:14;2.20;;;1.30;;
30147;SDS011;16960;49.404;8.248;2023-04-15T14:09:41;3.90;;;1.07;;
30147;SDS011;16960;49.404;8.248;2023-04-15T14:12:10;2.07;;;1.03;;
30147;SDS011;16960;49.404;8.248;2023-04-15T14:14:37;2.40;;;1.20;;
30147;SDS011;16960;49.404;8.248;2023-04-15T14:17:04;1.43;;;1.20;;
30147;SDS011;16960;49.404;8.248;2023-04-15T14:19:31;1.30;;;1.20;;
30147;SDS011;16960;49.404;8.248;2023-04-15T14:21:58;1.80;;;0.97;;
30147;SDS011;16960;49.404;8.248;2023-04-15T14:24:25;1.40;;;1.10;;
30147;SDS011;16960;49.404;8.248;2023-04-15T14:26:52;1.17;;;1.07;;
30147;SDS011;16960;49.404;8.248;2023-04-15T14:29:22;2.03;;;1.00;;
30147;SDS011;16960;49.404;8.248;2023-04-15T14:31:49;3.00;;;1.20;;
30147;SDS011;16960;49.404;8.248;2023-04-15T14:34:17;1.80;;;1.23;;
30147;SDS011;16960;49.404;8.248;2023-04-15T14:36:46;2.67;;;1.00;;
30147;SDS011;16960;49.404;8.248;2023-04-15T14:39:13;1.30;;;1.07;;
30147;SDS011;16960;49.404;8.248;2023-04-15T14:41:40;1.53;;;1.30;;
30147;SDS011;16960;49.404;8.248;2023-04-15T14:44:07;1.40;;;1.10;;
30147;SDS011;16960;49.404;8.248;2023-04-15T14:46:37;1.30;;;1.10;;
30147;SDS011;16960;49.404;8.248;2023-04-15T14:49:04;2.00;;;0.93;;
30147;SDS011;16960;49.404;8.248;2023-04-15T14:51:31;0.93;;;0.83;;
30147;SDS011;16960;49.404;8.248;2023-04-15T14:53:58;1.30;;;1.00;;
30147;SDS011;16960;49.404;8.248;2023-04-15T14:56:25;1.37;;;1.20;;
30147;SDS011;16960;49.404;8.248;2023-04-15T14:58:52;2.17;;;1.20;;
30147;SDS011;16960;49.404;8.248;2023-04-15T15:01:19;2.13;;;1.30;;